createdAt,value
2017-09-20T00:00:40.480Z,34.52
2017-09-20T00:01:40.452Z,34.42
2017-09-20T00:02:40.757Z,34.71
2017-09-20T00:03:40.425Z,34.52
2017-09-20T00:04:40.410Z,34.52
2017-09-20T00:05:40.717Z,34.61
2017-09-20T00:06:40.696Z,34.52
2017-09-20T00:07:40.694Z,34.52
2017-09-20T00:08:40.668Z,34.71
2017-09-20T00:09:40.661Z,34.42
2017-09-20T00:10:40.321Z,34.05
2017-09-20T00:11:40.628Z,34.14
2017-09-20T00:12:40.614Z,33.57
2017-09-20T00:13:40.279Z,33.66
2017-09-20T00:14:40.582Z,33.37
2017-09-20T00:15:40.568Z,33.76
2017-09-20T00:16:40.553Z,33.28
2017-09-20T00:17:40.222Z,33.37
2017-09-20T00:18:40.206Z,33.57
2017-09-20T00:19:40.506Z,33.57
2017-09-20T00:20:40.172Z,33.37
2017-09-20T00:21:40.478Z,33.28
2017-09-20T00:22:40.468Z,33.37
2017-09-20T00:23:40.128Z,33.76
2017-09-20T00:24:40.439Z,33.66
2017-09-20T00:25:40.095Z,33.57
2017-09-20T00:26:40.082Z,33.64
2017-09-20T00:27:40.066Z,34.03
2017-09-20T00:28:40.055Z,33.93
2017-09-20T00:29:40.039Z,33.84
2017-09-20T00:30:40.024Z,34.12
2017-09-20T00:31:40.007Z,34.31
2017-09-20T00:32:39.996Z,34.03
2017-09-20T00:33:40.302Z,34.22
2017-09-20T00:34:39.963Z,34.41
2017-09-20T00:35:40.271Z,33.55
2017-09-20T00:36:40.255Z,34.03
2017-09-20T00:37:40.238Z,34.03
2017-09-20T00:38:39.912Z,34.12
2017-09-20T00:39:40.216Z,34.22
2017-09-20T00:40:40.195Z,34.41
2017-09-20T00:41:40.182Z,34.31
2017-09-20T00:42:39.858Z,34.31
2017-09-20T00:43:40.146Z,34.12
2017-09-20T00:44:39.815Z,34.31
2017-09-20T00:45:39.807Z,34.41
2017-09-20T00:46:39.788Z,34.6
2017-09-20T00:47:39.770Z,34.6
2017-09-20T00:48:40.072Z,35.27
2017-09-20T00:49:40.060Z,34.98
2017-09-20T00:50:40.044Z,35.55
2017-09-20T00:51:39.709Z,35.55
2017-09-20T00:52:39.690Z,35.55
2017-09-20T00:53:40.000Z,36.12
2017-09-20T00:54:39.991Z,35.74
2017-09-20T00:55:39.971Z,36.03
2017-09-20T00:56:39.954Z,36.22
2017-09-20T00:57:39.615Z,36.41
2017-09-20T00:58:39.935Z,36.32
2017-09-20T00:59:39.911Z,36.32
2017-09-20T01:00:39.897Z,36.6
2017-09-20T01:01:39.878Z,36.79
2017-09-20T01:02:39.543Z,36.88
2017-09-20T01:03:39.527Z,36.79
2017-09-20T01:04:39.513Z,36.79
2017-09-20T01:05:39.503Z,36.96
2017-09-20T01:06:39.805Z,37.06
2017-09-20T01:07:39.465Z,36.68
2017-09-20T01:08:39.772Z,36.49
2017-09-20T01:09:39.762Z,36.2
2017-09-20T01:10:39.744Z,34.58
2017-09-20T01:11:39.725Z,34.5
2017-09-20T01:12:39.715Z,33.55
2017-09-20T01:13:39.693Z,34.03
2017-09-20T01:14:39.681Z,33.64
2017-09-20T01:15:39.666Z,33.55
2017-09-20T01:16:39.337Z,33.55
2017-09-20T01:17:39.316Z,33.55
2017-09-20T01:18:39.302Z,33.74
2017-09-20T01:19:39.284Z,33.15
2017-09-20T01:20:39.589Z,32.98
2017-09-20T01:21:39.578Z,33.07
2017-09-20T01:22:39.236Z,32.98
2017-09-20T01:23:39.222Z,32.88
2017-09-20T01:24:39.530Z,32.79
2017-09-20T01:25:39.512Z,33.07
2017-09-20T01:26:39.498Z,32.79
2017-09-20T01:27:39.484Z,32.88
2017-09-20T01:28:39.473Z,32.68
2017-09-20T01:29:39.131Z,32.68
2017-09-20T01:30:39.435Z,33.26
2017-09-20T01:31:39.418Z,33.07
2017-09-20T01:32:39.110Z,33.06
2017-09-20T01:33:39.068Z,33.06
2017-09-20T01:34:39.054Z,33.72
2017-09-20T01:35:39.038Z,33.53
2017-09-20T01:36:39.022Z,33.72
2017-09-20T01:37:39.327Z,33.15
2017-09-20T01:38:39.364Z,33.15
2017-09-20T01:39:39.295Z,32.79
2017-09-20T01:40:39.288Z,33.06
2017-09-20T01:41:38.949Z,32.77
2017-09-20T01:42:39.253Z,32.77
2017-09-20T01:43:39.236Z,32.96
2017-09-20T01:44:39.227Z,32.5
2017-09-20T01:45:38.883Z,32.68
2017-09-20T01:46:38.872Z,32.68
2017-09-20T01:47:38.861Z,32.29
2017-09-20T01:48:38.842Z,32.39
2017-09-20T01:49:39.029Z,32.39
2017-09-20T01:50:39.129Z,32.48
2017-09-20T01:51:38.792Z,32.29
2017-09-20T01:52:39.100Z,32.2
2017-09-20T01:53:38.761Z,32.12
2017-09-20T01:54:38.752Z,32.1
2017-09-20T01:55:38.737Z,32.1
2017-09-20T01:56:38.722Z,32.1
2017-09-20T01:57:39.026Z,31.72
2017-09-20T01:58:38.686Z,31.72
2017-09-20T01:59:38.668Z,32.2
2017-09-20T02:00:38.657Z,32.2
2017-09-20T02:01:38.966Z,31.72
2017-09-20T02:02:38.624Z,31.82
2017-09-20T02:03:38.645Z,32.1
2017-09-20T02:04:38.597Z,31.72
2017-09-20T02:05:38.899Z,31.15
2017-09-20T02:06:38.564Z,30.58
2017-09-20T02:07:38.548Z,30.87
2017-09-20T02:08:38.854Z,30.31
2017-09-20T02:09:38.841Z,30.49
2017-09-20T02:10:38.499Z,30.02
2017-09-20T02:11:38.804Z,29.64
2017-09-20T02:12:38.792Z,29.53
2017-09-20T02:13:38.775Z,29.83
2017-09-20T02:14:38.759Z,29.55
2017-09-20T02:15:38.430Z,29.45
2017-09-20T02:16:38.407Z,29.15
2017-09-20T02:17:38.718Z,28.49
2017-09-20T02:18:38.704Z,28.78
2017-09-20T02:19:38.363Z,28.97
2017-09-20T02:20:38.666Z,28.4
2017-09-20T02:21:38.652Z,28.59
2017-09-20T02:22:38.313Z,28.31
2017-09-20T02:23:38.302Z,27.92
2017-09-20T02:24:38.286Z,27.92
2017-09-20T02:25:38.620Z,27.36
2017-09-20T02:26:38.575Z,27.26
2017-09-20T02:27:38.558Z,27.55
2017-09-20T02:28:38.545Z,27.64
2017-09-20T02:29:38.256Z,27.07
2017-09-20T02:30:38.197Z,26.88
2017-09-20T02:31:38.177Z,26.68
2017-09-20T02:32:38.481Z,26.68
2017-09-20T02:33:38.148Z,26.88
2017-09-20T02:34:38.455Z,26.4
2017-09-20T02:35:38.437Z,26.31
2017-09-20T02:36:38.099Z,26.31
2017-09-20T02:37:38.409Z,26.12
2017-09-20T02:38:38.397Z,26.21
2017-09-20T02:39:38.059Z,26.21
2017-09-20T02:40:38.036Z,26.02
2017-09-20T02:41:38.022Z,25.83
2017-09-20T02:42:38.332Z,25.92
2017-09-20T02:43:37.991Z,25.92
2017-09-20T02:44:37.985Z,26.02
2017-09-20T02:45:38.281Z,25.92
2017-09-20T02:46:38.268Z,26.02
2017-09-20T02:47:37.928Z,25.92
2017-09-20T02:48:38.248Z,25.92
2017-09-20T02:49:37.898Z,26.02
2017-09-20T02:50:37.885Z,26.12
2017-09-20T02:51:37.868Z,26.02
2017-09-20T02:52:37.850Z,26.02
2017-09-20T02:53:37.838Z,26.12
2017-09-20T02:54:38.149Z,26.12
2017-09-20T02:55:38.127Z,26.02
2017-09-20T02:56:37.791Z,26.02
2017-09-20T02:57:38.098Z,26.12
2017-09-20T02:58:37.758Z,25.73
2017-09-20T02:59:37.748Z,25.92
2017-09-20T03:00:37.727Z,26.02
2017-09-20T03:01:38.034Z,26.02
2017-09-20T03:02:37.696Z,26.4
2017-09-20T03:03:38.005Z,26.12
2017-09-20T03:04:37.665Z,26.5
2017-09-20T03:05:37.651Z,26.02
2017-09-20T03:06:37.958Z,25.83
2017-09-20T03:07:37.623Z,26.02
2017-09-20T03:08:37.931Z,26.21
2017-09-20T03:09:37.912Z,25.92
2017-09-20T03:10:37.574Z,26.02
2017-09-20T03:11:37.878Z,25.83
2017-09-20T03:12:37.861Z,25.73
2017-09-20T03:13:37.529Z,25.64
2017-09-20T03:14:37.509Z,25.64
2017-09-20T03:15:37.494Z,25.64
2017-09-20T03:16:37.802Z,25.54
2017-09-20T03:17:37.797Z,25.45
2017-09-20T03:18:37.775Z,25.35
2017-09-20T03:19:37.435Z,25.45
2017-09-20T03:20:37.741Z,25.26
2017-09-20T03:21:37.405Z,25.26
2017-09-20T03:22:37.710Z,25.16
2017-09-20T03:23:37.697Z,25.54
2017-09-20T03:24:37.676Z,25.45
2017-09-20T03:25:37.665Z,24.88
2017-09-20T03:26:37.650Z,24.97
2017-09-20T03:27:37.629Z,25.07
2017-09-20T03:28:37.292Z,24.97
2017-09-20T03:29:37.606Z,24.97
2017-09-20T03:30:37.605Z,24.97
2017-09-20T03:31:37.254Z,25.07
2017-09-20T03:32:37.237Z,25.45
2017-09-20T03:33:37.540Z,25.54
2017-09-20T03:34:37.202Z,25.26
2017-09-20T03:35:37.507Z,25.16
2017-09-20T03:36:37.491Z,25.07
2017-09-20T03:37:37.474Z,25.54
2017-09-20T03:38:37.141Z,25.45
2017-09-20T03:39:37.126Z,25.64
2017-09-20T03:40:37.107Z,25.64
2017-09-20T03:41:37.092Z,25.73
2017-09-20T03:42:37.076Z,25.54
2017-09-20T03:43:37.389Z,25.83
2017-09-20T03:44:37.047Z,25.64
2017-09-20T03:45:37.382Z,25.73
2017-09-20T03:46:37.017Z,25.64
2017-09-20T03:47:37.328Z,25.54
2017-09-20T03:48:36.984Z,25.54
2017-09-20T03:49:37.173Z,25.26
2017-09-20T03:50:36.954Z,25.26
2017-09-20T03:51:37.259Z,25.16
2017-09-20T03:52:37.239Z,25.16
2017-09-20T03:53:37.232Z,25.16
2017-09-20T03:54:36.895Z,25.26
2017-09-20T03:55:36.877Z,25.16
2017-09-20T03:56:37.187Z,25.26
2017-09-20T03:57:36.846Z,25.35
2017-09-20T03:58:37.151Z,25.54
2017-09-20T03:59:37.140Z,24.97
2017-09-20T04:00:36.801Z,24.88
2017-09-20T04:01:37.106Z,24.88
2017-09-20T04:02:37.093Z,24.97
2017-09-20T04:03:36.752Z,24.97
2017-09-20T04:04:36.743Z,25.07
2017-09-20T04:05:36.723Z,25.07
2017-09-20T04:06:37.028Z,24.97
2017-09-20T04:07:36.690Z,24.97
2017-09-20T04:08:36.995Z,25.07
2017-09-20T04:09:36.662Z,24.88
2017-09-20T04:10:36.646Z,25.07
2017-09-20T04:11:36.951Z,24.97
2017-09-20T04:12:36.935Z,25.26
2017-09-20T04:13:36.604Z,25.16
2017-09-20T04:14:36.908Z,25.16
2017-09-20T04:15:36.894Z,25.26
2017-09-20T04:16:36.554Z,25.07
2017-09-20T04:17:36.860Z,24.97
2017-09-20T04:18:36.847Z,25.07
2017-09-20T04:19:36.511Z,24.97
2017-09-20T04:20:36.818Z,25.07
2017-09-20T04:21:36.478Z,25.16
2017-09-20T04:22:36.795Z,25.07
2017-09-20T04:23:36.448Z,25.16
2017-09-20T04:24:36.432Z,25.16
2017-09-20T04:25:36.734Z,25.16
2017-09-20T04:26:36.722Z,25.16
2017-09-20T04:27:36.708Z,25.26
2017-09-20T04:28:36.688Z,25.16
2017-09-20T04:29:36.353Z,24.68
2017-09-20T04:30:36.660Z,24.59
2017-09-20T04:31:36.326Z,24.88
2017-09-20T04:32:36.308Z,24.69
2017-09-20T04:33:36.293Z,24.49
2017-09-20T04:34:36.600Z,24.88
2017-09-20T04:35:36.585Z,24.68
2017-09-20T04:36:36.243Z,24.6
2017-09-20T04:37:36.293Z,24.59
2017-09-20T04:38:36.541Z,24.49
2017-09-20T04:39:36.521Z,24.59
2017-09-20T04:40:36.504Z,24.59
2017-09-20T04:41:36.490Z,24.68
2017-09-20T04:42:36.475Z,24.68
2017-09-20T04:43:36.460Z,24.59
2017-09-20T04:44:36.446Z,24.49
2017-09-20T04:45:36.105Z,24.49
2017-09-20T04:46:36.417Z,24.79
2017-09-20T04:47:36.077Z,24.97
2017-09-20T04:48:36.384Z,25.07
2017-09-20T04:49:36.051Z,24.78
2017-09-20T04:50:36.350Z,25.07
2017-09-20T04:51:36.015Z,24.68
2017-09-20T04:52:36.320Z,24.79
2017-09-20T04:53:35.985Z,24.69
2017-09-20T04:54:35.972Z,24.97
2017-09-20T04:55:35.955Z,25.18
2017-09-20T04:56:35.990Z,24.97
2017-09-20T04:57:36.242Z,24.78
2017-09-20T04:58:35.907Z,25.37
2017-09-20T04:59:36.239Z,25.16
2017-09-20T05:00:36.203Z,25.16
2017-09-20T05:01:35.863Z,25.07
2017-09-20T05:02:36.169Z,25.37
2017-09-20T05:03:35.831Z,25.18
2017-09-20T05:04:35.817Z,25.18
2017-09-20T05:05:36.121Z,25.18
2017-09-20T05:06:35.788Z,25.16
2017-09-20T05:07:35.774Z,25.18
2017-09-20T05:08:36.075Z,25.18
2017-09-20T05:09:35.739Z,25.35
2017-09-20T05:10:36.045Z,25.27
2017-09-20T05:11:35.707Z,25.27
2017-09-20T05:12:35.692Z,25.08
2017-09-20T05:13:36.029Z,25.08
2017-09-20T05:14:35.982Z,24.98
2017-09-20T05:15:35.649Z,25.08
2017-09-20T05:16:35.630Z,24.98
2017-09-20T05:17:35.940Z,24.89
2017-09-20T05:18:35.600Z,24.98
2017-09-20T05:19:35.586Z,24.89
2017-09-20T05:20:35.587Z,24.98
2017-09-20T05:21:35.875Z,24.98
2017-09-20T05:22:35.864Z,24.79
2017-09-20T05:23:35.524Z,24.69
2017-09-20T05:24:35.828Z,24.89
2017-09-20T05:25:35.815Z,25.37
2017-09-20T05:26:35.799Z,25.46
2017-09-20T05:27:35.783Z,25.46
2017-09-20T05:28:35.449Z,25.56
2017-09-20T05:29:35.434Z,24.98
2017-09-20T05:30:35.738Z,25.65
2017-09-20T05:31:35.720Z,25.46
2017-09-20T05:32:35.385Z,25.37
2017-09-20T05:33:35.372Z,24.89
2017-09-20T05:34:35.676Z,25.08
2017-09-20T05:35:35.345Z,25.08
2017-09-20T05:36:35.323Z,24.98
2017-09-20T05:37:35.629Z,25.08
2017-09-20T05:38:35.620Z,24.98
2017-09-20T05:39:35.599Z,25.08
2017-09-20T05:40:35.587Z,25.08
2017-09-20T05:41:35.250Z,24.79
2017-09-20T05:42:35.558Z,25.18
2017-09-20T05:43:35.548Z,25.18
2017-09-20T05:44:35.524Z,25.18
2017-09-20T05:45:35.185Z,25.08
2017-09-20T05:46:35.492Z,24.98
2017-09-20T05:47:35.478Z,25.08
2017-09-20T05:48:35.461Z,25.08
2017-09-20T05:49:35.648Z,24.6
2017-09-20T05:50:35.111Z,24.79
2017-09-20T05:51:35.423Z,24.51
2017-09-20T05:52:35.403Z,24.6
2017-09-20T05:53:35.386Z,24.6
2017-09-20T05:54:35.375Z,24.69
2017-09-20T05:55:35.359Z,24.6
2017-09-20T05:56:35.336Z,24.51
2017-09-20T05:57:35.005Z,24.6
2017-09-20T05:58:35.312Z,24.51
2017-09-20T05:59:35.296Z,24.6
2017-09-20T06:00:35.279Z,24.51
2017-09-20T06:01:35.278Z,24.51
2017-09-20T06:02:34.937Z,24.69
2017-09-20T06:03:34.912Z,25.08
2017-09-20T06:04:35.217Z,24.41
2017-09-20T06:05:35.203Z,25.08
2017-09-20T06:06:35.190Z,24.98
2017-09-20T06:07:35.181Z,24.98
2017-09-20T06:08:35.157Z,24.98
2017-09-20T06:09:35.145Z,24.79
2017-09-20T06:10:35.129Z,24.89
2017-09-20T06:11:35.126Z,24.79
2017-09-20T06:12:34.826Z,25.37
2017-09-20T06:13:35.084Z,25.18
2017-09-20T06:14:34.757Z,25.37
2017-09-20T06:15:34.731Z,25.65
2017-09-20T06:16:35.043Z,25.84
2017-09-20T06:17:34.704Z,25.65
2017-09-20T06:18:35.007Z,25.84
2017-09-20T06:19:34.996Z,26.22
2017-09-20T06:20:34.667Z,25.94
2017-09-20T06:21:34.646Z,25.74
2017-09-20T06:22:34.949Z,25.27
2017-09-20T06:23:34.626Z,25.57
2017-09-20T06:24:34.918Z,26.04
2017-09-20T06:25:34.902Z,25.95
2017-09-20T06:26:34.569Z,25.85
2017-09-20T06:27:34.553Z,25.95
2017-09-20T06:28:34.858Z,25.94
2017-09-20T06:29:34.846Z,25.95
2017-09-20T06:30:34.508Z,26.13
2017-09-20T06:31:34.497Z,26.43
2017-09-20T06:32:34.480Z,27.28
2017-09-20T06:33:34.787Z,27.19
2017-09-20T06:34:34.447Z,27.28
2017-09-20T06:35:34.755Z,27.48
2017-09-20T06:36:34.419Z,27.38
2017-09-20T06:37:34.407Z,27.57
2017-09-20T06:38:34.391Z,27.38
2017-09-20T06:39:34.376Z,27.48
2017-09-20T06:40:34.360Z,27.57
2017-09-20T06:41:34.671Z,27.76
2017-09-20T06:42:34.329Z,28.14
2017-09-20T06:43:34.317Z,27.57
2017-09-20T06:44:34.622Z,27.95
2017-09-20T06:45:34.286Z,27.86
2017-09-20T06:46:34.590Z,27.95
2017-09-20T06:47:34.257Z,27.86
2017-09-20T06:48:34.560Z,27.95
2017-09-20T06:49:34.226Z,28.33
2017-09-20T06:50:34.211Z,28.53
2017-09-20T06:51:34.514Z,28.53
2017-09-20T06:52:34.185Z,28.24
2017-09-20T06:53:34.165Z,28.33
2017-09-20T06:54:34.151Z,28.24
2017-09-20T06:55:34.460Z,28.43
2017-09-20T06:56:34.125Z,28.43
2017-09-20T06:57:34.109Z,28.14
2017-09-20T06:58:34.093Z,28.33
2017-09-20T06:59:34.399Z,28.14
2017-09-20T07:00:34.066Z,28.33
2017-09-20T07:01:34.369Z,28.14
2017-09-20T07:02:34.358Z,28.14
2017-09-20T07:03:34.340Z,28.33
2017-09-20T07:04:34.326Z,27.76
2017-09-20T07:05:34.309Z,27.95
2017-09-20T07:06:34.293Z,27.86
2017-09-20T07:07:34.280Z,27.86
2017-09-20T07:08:33.943Z,28.05
2017-09-20T07:09:34.257Z,27.67
2017-09-20T07:10:34.234Z,27.48
2017-09-20T07:11:34.222Z,27.38
2017-09-20T07:12:34.208Z,27.28
2017-09-20T07:13:34.198Z,27.95
2017-09-20T07:14:34.174Z,27.95
2017-09-20T07:15:33.840Z,27.67
2017-09-20T07:16:33.827Z,27.57
2017-09-20T07:17:34.148Z,27.95
2017-09-20T07:18:33.798Z,28.33
2017-09-20T07:19:34.106Z,29.1
2017-09-20T07:20:33.771Z,29.19
2017-09-20T07:21:33.754Z,28.81
2017-09-20T07:22:34.056Z,28.81
2017-09-20T07:23:34.043Z,29.4
2017-09-20T07:24:33.711Z,29.4
2017-09-20T07:25:34.021Z,29.49
2017-09-20T07:26:34.001Z,30.45
2017-09-20T07:27:33.666Z,30.26
2017-09-20T07:28:33.657Z,30.74
2017-09-20T07:29:33.959Z,30.83
2017-09-20T07:30:33.627Z,31.12
2017-09-20T07:31:33.934Z,31.12
2017-09-20T07:32:33.918Z,32.26
2017-09-20T07:33:33.906Z,32.55
2017-09-20T07:34:33.886Z,32.65
2017-09-20T07:35:33.551Z,32.55
2017-09-20T07:36:33.537Z,32.55
2017-09-20T07:37:33.524Z,32.74
2017-09-20T07:38:33.512Z,33.5
2017-09-20T07:39:33.824Z,34.55
2017-09-20T07:40:33.485Z,34.19
2017-09-20T07:41:33.467Z,35.53
2017-09-20T07:42:33.456Z,35.8
2017-09-20T07:43:33.443Z,36.68
2017-09-20T07:44:33.435Z,36.77
2017-09-20T07:45:33.736Z,36.29
2017-09-20T07:46:33.720Z,36.68
2017-09-20T07:47:33.711Z,37.05
2017-09-20T07:48:33.697Z,37.73
2017-09-20T07:49:33.885Z,37.92
2017-09-20T07:50:33.343Z,37.24
2017-09-20T07:51:33.332Z,37.44
2017-09-20T07:52:33.641Z,38.39
2017-09-20T07:53:33.624Z,38.01
2017-09-20T07:54:33.613Z,37.92
2017-09-20T07:55:33.598Z,37.82
2017-09-20T07:56:33.260Z,38.2
2017-09-20T07:57:33.575Z,37.82
2017-09-20T07:58:33.233Z,38.2
2017-09-20T07:59:33.540Z,39.35
2017-09-20T08:00:33.531Z,39.44
2017-09-20T08:01:33.513Z,40.13
2017-09-20T08:02:33.504Z,40.2
2017-09-20T08:03:33.488Z,39.44
2017-09-20T08:04:33.474Z,40.32
2017-09-20T08:05:33.142Z,40.99
2017-09-20T08:06:33.450Z,41.38
2017-09-20T08:07:33.434Z,41.47
2017-09-20T08:08:33.107Z,41.38
2017-09-20T08:09:33.410Z,42.14
2017-09-20T08:10:33.074Z,42.04
2017-09-20T08:11:33.061Z,41.95
2017-09-20T08:12:33.391Z,43.29
2017-09-20T08:13:33.033Z,43.48
2017-09-20T08:14:33.020Z,43.19
2017-09-20T08:15:33.331Z,43.66
2017-09-20T08:16:33.313Z,43.57
2017-09-20T08:17:33.303Z,43.19
2017-09-20T08:18:32.975Z,43.57
2017-09-20T08:19:33.276Z,43.66
2017-09-20T08:20:33.265Z,45.39
2017-09-20T08:21:33.250Z,44.91
2017-09-20T08:22:33.237Z,44.53
2017-09-20T08:23:33.228Z,44.81
2017-09-20T08:24:33.210Z,44.72
2017-09-20T08:25:33.201Z,46.25
2017-09-20T08:26:33.227Z,45.96
2017-09-20T08:27:33.172Z,46.15
2017-09-20T08:28:33.165Z,45.96
2017-09-20T08:29:33.147Z,46.63
2017-09-20T08:30:33.128Z,47.01
2017-09-20T08:31:32.806Z,46.63
2017-09-20T08:32:32.792Z,47.11
2017-09-20T08:33:33.096Z,47.58
2017-09-20T08:34:33.090Z,46.66
2017-09-20T08:35:33.066Z,47.49
2017-09-20T08:36:32.732Z,49.33
2017-09-20T08:37:32.720Z,49.14
2017-09-20T08:38:33.027Z,50.29
2017-09-20T08:39:32.697Z,50.19
2017-09-20T08:40:33.002Z,52.67
2017-09-20T08:41:32.986Z,52.77
2017-09-20T08:42:32.655Z,52.2
2017-09-20T08:43:32.641Z,52.48
2017-09-20T08:44:32.627Z,52.1
2017-09-20T08:45:32.938Z,51.62
2017-09-20T08:46:32.601Z,53.73
2017-09-20T08:47:32.913Z,50.48
2017-09-20T08:48:32.579Z,49.71
2017-09-20T08:49:32.565Z,50.76
2017-09-20T08:50:32.551Z,51.34
2017-09-20T08:51:32.862Z,50.95
2017-09-20T08:52:32.850Z,53.92
2017-09-20T08:53:32.839Z,53.63
2017-09-20T08:54:32.506Z,54.68
2017-09-20T08:55:32.488Z,56.5
2017-09-20T08:56:32.482Z,55.35
2017-09-20T08:57:32.459Z,55.45
2017-09-20T08:58:32.771Z,56.21
2017-09-20T08:59:32.437Z,55.35
2017-09-20T09:00:32.756Z,54.97
2017-09-20T09:01:32.411Z,59.88
2017-09-20T09:02:32.400Z,58.98
2017-09-20T09:03:32.387Z,60.13
2017-09-20T09:04:32.694Z,60.35
2017-09-20T09:05:32.361Z,60.26
2017-09-20T09:06:32.667Z,60.45
2017-09-20T09:07:32.336Z,60.35
2017-09-20T09:08:32.326Z,60.06
2017-09-20T09:09:32.630Z,60.26
2017-09-20T09:10:32.298Z,66.28
2017-09-20T09:11:32.290Z,63.23
2017-09-20T09:12:32.601Z,63.32
2017-09-20T09:13:32.270Z,66.67
2017-09-20T09:14:32.246Z,66.86
2017-09-20T09:15:32.236Z,65.45
2017-09-20T09:16:32.547Z,64.88
2017-09-20T09:17:32.534Z,66.8
2017-09-20T09:18:32.525Z,66.32
2017-09-20T09:19:32.508Z,66.32
2017-09-20T09:20:32.548Z,66.99
2017-09-20T09:21:32.167Z,67.37
2017-09-20T09:22:32.150Z,69.57
2017-09-20T09:23:32.139Z,71.2
2017-09-20T09:24:32.133Z,72.73
2017-09-20T09:25:32.438Z,70.72
2017-09-20T09:26:32.105Z,70.24
2017-09-20T09:27:32.419Z,69.76
2017-09-20T09:28:32.404Z,66.99
2017-09-20T09:29:32.102Z,71.23
2017-09-20T09:30:32.058Z,69.48
2017-09-20T09:31:32.369Z,72.58
2017-09-20T09:32:32.360Z,71.52
2017-09-20T09:33:32.024Z,72.09
2017-09-20T09:34:32.014Z,76.31
2017-09-20T09:35:32.334Z,76.31
2017-09-20T09:36:31.993Z,74.3
2017-09-20T09:37:31.982Z,73.15
2017-09-20T09:38:31.971Z,70.76
2017-09-20T09:39:32.279Z,68.65
2017-09-20T09:40:32.273Z,75.83
2017-09-20T09:41:32.259Z,73.44
2017-09-20T09:42:32.253Z,73.44
2017-09-20T09:43:31.913Z,76.79
2017-09-20T09:44:31.899Z,78.13
2017-09-20T09:45:32.243Z,78.89
2017-09-20T09:46:31.886Z,78.03
2017-09-20T09:47:31.866Z,77.75
2017-09-20T09:48:31.858Z,75.83
2017-09-20T09:49:32.048Z,78.51
2017-09-20T09:50:31.834Z,82.53
2017-09-20T09:51:32.145Z,80.81
2017-09-20T09:52:32.133Z,79.85
2017-09-20T09:53:31.803Z,78.89
2017-09-20T09:54:31.790Z,82.43
2017-09-20T09:55:32.105Z,80.43
2017-09-20T09:56:31.773Z,81.86
2017-09-20T09:57:32.077Z,77.94
2017-09-20T09:58:31.748Z,75.35
2017-09-20T09:59:31.738Z,78.84
2017-09-20T10:00:31.723Z,79.32
2017-09-20T10:01:32.037Z,79.32
2017-09-20T10:02:32.032Z,82.48
2017-09-20T10:03:32.016Z,86.31
2017-09-20T10:04:32.006Z,88.51
2017-09-20T10:05:31.995Z,88.8
2017-09-20T10:06:32.032Z,87.74
2017-09-20T10:07:31.653Z,88.7
2017-09-20T10:08:31.642Z,88.7
2017-09-20T10:09:31.630Z,89.66
2017-09-20T10:10:31.622Z,86.79
2017-09-20T10:11:31.936Z,84.97
2017-09-20T10:12:31.922Z,86.41
2017-09-20T10:13:31.907Z,88.9
2017-09-20T10:14:31.901Z,86.98
2017-09-20T10:15:31.890Z,86.6
2017-09-20T10:16:31.878Z,84.88
2017-09-20T10:17:31.866Z,86.02
2017-09-20T10:18:31.536Z,88.42
2017-09-20T10:19:31.845Z,93.59
2017-09-20T10:20:31.834Z,93.69
2017-09-20T10:21:31.501Z,91.19
2017-09-20T10:22:31.494Z,88.61
2017-09-20T10:23:31.489Z,90.33
2017-09-20T10:24:31.791Z,91.29
2017-09-20T10:25:31.782Z,92.63
2017-09-20T10:26:31.451Z,90.53
2017-09-20T10:27:31.759Z,89.18
2017-09-20T10:28:31.750Z,90.23
2017-09-20T10:29:31.501Z,92.63
2017-09-20T10:30:31.446Z,89.47
2017-09-20T10:31:31.398Z,91.19
2017-09-20T10:32:31.714Z,91.96
2017-09-20T10:33:31.695Z,94.84
2017-09-20T10:34:31.688Z,94.74
2017-09-20T10:35:31.354Z,94.35
2017-09-20T10:36:31.344Z,99.29
2017-09-20T10:37:31.656Z,99.68
2017-09-20T10:38:31.645Z,97.9
2017-09-20T10:39:31.634Z,98.72
2017-09-20T10:40:31.304Z,99.99
2017-09-20T10:41:31.327Z,99.99
2017-09-20T10:42:31.603Z,99.77
2017-09-20T10:43:31.598Z,97.95
2017-09-20T10:44:31.584Z,99.99
2017-09-20T10:45:31.252Z,99.99
2017-09-20T10:46:31.242Z,99.99
2017-09-20T10:47:31.559Z,99.99
2017-09-20T10:48:31.553Z,99.99
2017-09-20T10:49:31.535Z,99.99
2017-09-20T10:50:31.528Z,99.99
2017-09-20T10:51:31.517Z,99.99
2017-09-20T10:52:31.185Z,99.99
2017-09-20T10:53:31.495Z,99.99
2017-09-20T10:54:31.497Z,99.99
2017-09-20T10:55:31.477Z,99.99
2017-09-20T10:56:31.144Z,99.99
2017-09-20T10:57:31.132Z,99.99
2017-09-20T10:58:31.455Z,99.99
2017-09-20T10:59:31.441Z,99.99
2017-09-20T11:00:31.424Z,99.99
2017-09-20T11:01:31.423Z,99.99
2017-09-20T11:02:31.410Z,99.99
2017-09-20T11:03:31.400Z,99.99
2017-09-20T11:04:31.388Z,99.99
2017-09-20T11:05:31.056Z,99.99
2017-09-20T11:06:31.045Z,99.99
2017-09-20T11:07:31.357Z,99.99
2017-09-20T11:08:31.025Z,99.99
2017-09-20T11:09:31.339Z,99.99
2017-09-20T11:10:31.329Z,99.99
2017-09-20T11:11:31.002Z,99.99
2017-09-20T11:12:31.317Z,99.99
2017-09-20T11:13:30.986Z,99.99
2017-09-20T11:14:31.296Z,99.99
2017-09-20T11:15:31.285Z,99.99
2017-09-20T11:16:31.270Z,99.99
2017-09-20T11:17:30.942Z,99.99
2017-09-20T11:18:30.935Z,99.99
2017-09-20T11:19:31.238Z,99.99
2017-09-20T11:20:31.234Z,99.99
2017-09-20T11:21:30.902Z,99.99
2017-09-20T11:22:30.894Z,99.99
2017-09-20T11:23:30.881Z,99.99
2017-09-20T11:24:30.873Z,99.99
2017-09-20T11:25:31.198Z,99.99
2017-09-20T11:26:30.856Z,99.99
2017-09-20T11:27:31.167Z,99.99
2017-09-20T11:28:30.834Z,99.99
2017-09-20T11:29:30.826Z,99.99
2017-09-20T11:30:31.147Z,99.99
2017-09-20T11:31:30.805Z,99.99
2017-09-20T11:32:31.116Z,99.99
2017-09-20T11:33:30.791Z,99.99
2017-09-20T11:34:31.102Z,99.99
2017-09-20T11:35:31.087Z,99.99
2017-09-20T11:36:31.084Z,99.99
2017-09-20T11:37:30.749Z,99.99
2017-09-20T11:38:30.741Z,99.99
2017-09-20T11:39:31.050Z,99.99
2017-09-20T11:40:30.717Z,99.99
2017-09-20T11:41:31.034Z,99.99
2017-09-20T11:42:31.022Z,99.99
2017-09-20T11:43:30.692Z,99.99
2017-09-20T11:44:30.681Z,99.99
2017-09-20T11:45:30.992Z,99.99
2017-09-20T11:46:30.662Z,99.99
2017-09-20T11:47:30.978Z,99.99
2017-09-20T11:48:30.641Z,99.99
2017-09-20T11:49:30.633Z,99.99
2017-09-20T11:50:30.627Z,99.99
2017-09-20T11:51:30.933Z,99.99
2017-09-20T11:52:30.606Z,99.99
2017-09-20T11:53:30.595Z,99.99
2017-09-20T11:54:30.589Z,99.99
2017-09-20T11:55:30.896Z,99.99
2017-09-20T11:56:30.887Z,99.99
2017-09-20T11:57:30.880Z,99.99
2017-09-20T11:58:30.874Z,99.99
2017-09-20T11:59:30.858Z,99.99
2017-09-20T12:00:30.526Z,99.99
2017-09-20T12:01:30.519Z,99.99
2017-09-20T12:02:30.507Z,99.99
2017-09-20T12:03:30.502Z,99.99
2017-09-20T12:04:30.486Z,99.99
2017-09-20T12:05:30.477Z,99.99
2017-09-20T12:06:30.789Z,99.99
2017-09-20T12:07:30.787Z,99.99
2017-09-20T12:08:30.450Z,99.99
2017-09-20T12:09:30.759Z,99.99
2017-09-20T12:10:30.775Z,99.99
2017-09-20T12:11:30.741Z,99.99
2017-09-20T12:12:30.412Z,99.99
2017-09-20T12:13:30.720Z,99.99
2017-09-20T12:14:30.714Z,99.99
2017-09-20T12:15:30.388Z,99.99
2017-09-20T12:16:30.376Z,99.99
2017-09-20T12:17:30.691Z,99.99
2017-09-20T12:18:30.697Z,99.99
2017-09-20T12:19:30.345Z,99.99
2017-09-20T12:20:30.662Z,99.99
2017-09-20T12:21:30.327Z,99.99
2017-09-20T12:22:30.319Z,99.99
2017-09-20T12:23:30.629Z,99.99
2017-09-20T12:24:30.313Z,99.99
2017-09-20T12:25:30.610Z,99.99
2017-09-20T12:26:30.285Z,99.99
2017-09-20T12:27:30.591Z,99.99
2017-09-20T12:28:30.586Z,99.99
2017-09-20T12:29:30.252Z,99.99
2017-09-20T12:30:30.560Z,99.99
2017-09-20T12:31:30.233Z,99.99
2017-09-20T12:32:30.220Z,99.99
2017-09-20T12:33:30.529Z,99.99
2017-09-20T12:34:30.521Z,99.99
2017-09-20T12:35:30.187Z,99.99
2017-09-20T12:36:30.499Z,99.99
2017-09-20T12:37:30.489Z,99.99
2017-09-20T12:38:30.484Z,99.99
2017-09-20T12:39:30.470Z,99.99
2017-09-20T12:40:30.499Z,99.99
2017-09-20T12:41:30.128Z,99.99
2017-09-20T12:42:30.436Z,99.99
2017-09-20T12:43:30.109Z,99.99
2017-09-20T12:44:30.101Z,99.99
2017-09-20T12:45:30.088Z,99.99
2017-09-20T12:46:30.090Z,99.99
2017-09-20T12:47:30.395Z,99.99
2017-09-20T12:48:30.382Z,99.99
2017-09-20T12:49:30.374Z,99.99
2017-09-20T12:50:30.363Z,99.99
2017-09-20T12:51:30.356Z,99.99
2017-09-20T12:52:30.347Z,99.99
2017-09-20T12:53:30.020Z,99.99
2017-09-20T12:54:30.329Z,99.99